Time;durP1;ratioP1;P1;durP2;ratioP2;P2;SDS_P1;SDS_P2;PMS_P1;PMS_P2;Temp;Humidity;BMP_temperature;BMP_pressure;BME280_temperature;BME280_humidity;BME280_pressure;Samples;Min_cycle;Max_cycle;Signal;HPM_P1;HPM_P2
2020/12/08 00:01:35;;;;;;;16.50;14.80;;;3.30;99.90;;;;;;5054751;28;20641;-65
2020/12/08 00:04:01;;;;;;;24.20;15.83;;;3.30;99.90;;;;;;5065674;28;20175;-65
2020/12/08 00:06:27;;;;;;;18.33;14.97;;;3.30;99.90;;;;;;5075953;28;20156;-65
2020/12/08 00:08:52;;;;;;;20.73;17.70;;;3.30;99.90;;;;;;5075650;28;20309;-65
2020/12/08 00:11:18;;;;;;;18.30;15.70;;;3.30;99.90;;;;;;5074280;28;20166;-65
2020/12/08 00:13:45;;;;;;;20.00;16.90;;;3.30;99.90;;;;;;5075792;28;20234;-65
2020/12/08 00:16:11;;;;;;;23.37;19.00;;;3.30;99.90;;;;;;5074522;28;20665;-65
2020/12/08 00:18:37;;;;;;;21.97;18.27;;;3.30;99.90;;;;;;5075750;28;20377;-65
2020/12/08 00:21:03;;;;;;;20.87;18.63;;;3.30;99.90;;;;;;5065430;28;20441;-65
2020/12/08 00:23:28;;;;;;;19.87;17.77;;;3.30;99.90;;;;;;5055705;28;20398;-65
2020/12/08 00:25:54;;;;;;;20.67;18.17;;;3.40;99.90;;;;;;5055553;28;20656;-65
2020/12/08 00:28:19;;;;;;;23.20;19.73;;;3.40;99.90;;;;;;5055728;28;20186;-65
2020/12/08 00:30:45;;;;;;;22.13;19.00;;;3.40;99.90;;;;;;5055419;28;20195;-65
2020/12/08 00:33:10;;;;;;;20.20;18.00;;;3.40;99.90;;;;;;5055462;28;20160;-65
2020/12/08 00:35:36;;;;;;;19.50;17.03;;;3.40;99.90;;;;;;5055552;28;20160;-65
2020/12/08 00:38:01;;;;;;;24.87;19.73;;;3.40;99.90;;;;;;5056188;28;20171;-65
2020/12/08 00:40:27;;;;;;;23.03;19.17;;;3.30;99.90;;;;;;5055378;28;20167;-65
2020/12/08 00:42:52;;;;;;;21.77;17.63;;;3.30;99.90;;;;;;5055100;28;20187;-65
2020/12/08 00:45:18;;;;;;;21.57;19.07;;;3.30;99.90;;;;;;5055270;28;20218;-65
2020/12/08 00:47:46;;;;;;;21.80;18.73;;;3.30;99.90;;;;;;5055299;28;20163;-65
2020/12/08 00:50:12;;;;;;;24.90;20.37;;;3.30;99.90;;;;;;5062279;28;20330;-65
2020/12/08 00:52:37;;;;;;;22.53;18.77;;;3.30;99.90;;;;;;5074646;28;20410;-65
2020/12/08 00:55:03;;;;;;;22.97;19.43;;;3.30;99.90;;;;;;5064129;28;20178;-65
2020/12/08 00:57:29;;;;;;;23.10;19.23;;;3.30;99.90;;;;;;5054933;28;20281;-65
2020/12/08 00:59:54;;;;;;;24.53;21.43;;;3.30;99.90;;;;;;5054866;28;20250;-65
2020/12/08 01:02:20;;;;;;;25.60;21.00;;;3.30;99.90;;;;;;5055079;28;20536;-65
2020/12/08 01:04:46;;;;;;;27.10;22.10;;;3.40;99.90;;;;;;5054852;28;20214;-65
2020/12/08 01:07:12;;;;;;;26.03;21.70;;;3.40;99.90;;;;;;5055001;28;20239;-65
2020/12/08 01:09:37;;;;;;;26.93;21.40;;;3.40;99.90;;;;;;5054600;28;20579;-65
2020/12/08 01:12:04;;;;;;;27.47;22.83;;;3.40;99.90;;;;;;5055258;28;20411;-65
2020/12/08 01:14:31;;;;;;;23.47;19.73;;;3.40;99.90;;;;;;5054803;28;20166;-65
2020/12/08 01:16:58;;;;;;;24.80;20.70;;;3.50;99.90;;;;;;5054471;28;20925;-65
2020/12/08 01:19:23;;;;;;;27.63;23.27;;;3.50;99.90;;;;;;5054496;28;20405;-65
2020/12/08 01:21:51;;;;;;;25.63;22.47;;;3.50;99.90;;;;;;5054822;28;20887;-65
2020/12/08 01:24:18;;;;;;;27.20;23.17;;;3.50;99.90;;;;;;5054379;28;20168;-65
2020/12/08 01:26:43;;;;;;;29.40;23.07;;;3.60;99.90;;;;;;5054393;28;20399;-65
2020/12/08 01:29:09;;;;;;;26.80;23.40;;;3.60;99.90;;;;;;5065510;28;20521;-65
2020/12/08 01:31:34;;;;;;;26.40;22.40;;;3.60;99.90;;;;;;5074242;28;20159;-65
2020/12/08 01:34:00;;;;;;;26.80;22.10;;;3.60;99.90;;;;;;5074263;28;20248;-65
2020/12/08 01:36:26;;;;;;;27.73;21.77;;;3.70;99.90;;;;;;5073261;28;20164;-65
2020/12/08 01:38:51;;;;;;;27.10;23.20;;;3.70;99.90;;;;;;5074117;28;20163;-65
2020/12/08 01:41:17;;;;;;;29.47;23.90;;;3.70;99.90;;;;;;5067689;28;20633;-65
2020/12/08 01:43:52;;;;;;;28.20;23.90;;;3.80;99.90;;;;;;5054167;28;20700;-65
2020/12/08 01:46:21;;;;;;;24.40;21.47;;;3.80;99.90;;;;;;5066647;28;20178;-65
2020/12/08 01:48:48;;;;;;;27.10;23.10;;;3.80;99.90;;;;;;5074161;28;20382;-65
2020/12/08 01:51:16;;;;;;;28.80;21.60;;;3.80;99.90;;;;;;5054140;28;20419;-65
2020/12/08 01:53:43;;;;;;;29.63;24.10;;;3.80;99.90;;;;;;5052150;28;20410;-65
2020/12/08 01:56:10;;;;;;;29.47;23.70;;;3.80;99.90;;;;;;5054253;28;20417;-65
2020/12/08 01:58:36;;;;;;;28.40;22.00;;;3.80;99.90;;;;;;5053860;28;20402;-65
2020/12/08 02:01:01;;;;;;;30.90;24.60;;;3.80;99.90;;;;;;5053773;28;20816;-65
2020/12/08 02:03:27;;;;;;;26.13;22.77;;;3.80;99.90;;;;;;5067661;28;20175;-65
2020/12/08 02:05:53;;;;;;;26.30;22.60;;;3.80;99.90;;;;;;5073618;28;20173;-65
2020/12/08 02:08:28;;;;;;;25.80;22.67;;;3.80;99.90;;;;;;5073651;28;20483;-65
2020/12/08 02:10:53;;;;;;;25.03;21.33;;;3.80;99.90;;;;;;5071546;28;20448;-65
2020/12/08 02:13:19;;;;;;;25.43;21.77;;;3.80;99.90;;;;;;5053616;28;20473;-65
2020/12/08 02:15:45;;;;;;;26.33;21.90;;;3.80;99.90;;;;;;5053484;28;20167;-65
2020/12/08 02:18:10;;;;;;;25.27;20.80;;;3.80;99.90;;;;;;5053731;28;20399;-65
2020/12/08 02:20:36;;;;;;;26.30;21.90;;;3.80;99.90;;;;;;5068099;28;20261;-65
2020/12/08 02:23:01;;;;;;;27.40;22.50;;;3.80;99.90;;;;;;5073480;28;20263;-65
2020/12/08 02:25:27;;;;;;;24.20;21.27;;;3.80;99.90;;;;;;5073509;28;20165;-65
2020/12/08 02:27:52;;;;;;;27.50;22.30;;;3.80;99.90;;;;;;5073159;28;20185;-65
2020/12/08 02:30:18;;;;;;;24.87;21.60;;;3.80;99.90;;;;;;5073109;28;20197;-65
2020/12/08 02:32:43;;;;;;;24.67;21.90;;;3.80;99.90;;;;;;5073389;28;20175;-65
2020/12/08 02:35:09;;;;;;;26.50;22.97;;;3.90;99.90;;;;;;5073360;28;20495;-65
2020/12/08 02:37:35;;;;;;;24.43;21.60;;;3.90;99.90;;;;;;5072496;28;20178;-65
2020/12/08 02:40:03;;;;;;;30.27;22.20;;;3.90;99.90;;;;;;5073041;28;20172;-65
2020/12/08 02:42:29;;;;;;;23.97;20.83;;;3.90;99.90;;;;;;5068385;28;20409;-65
2020/12/08 02:44:54;;;;;;;24.43;21.73;;;3.90;99.90;;;;;;5073297;28;20442;-65
2020/12/08 02:47:20;;;;;;;25.00;19.63;;;3.90;99.90;;;;;;5073072;28;20240;-65
2020/12/08 02:49:45;;;;;;;26.03;21.40;;;3.90;99.90;;;;;;5073297;28;20301;-65
2020/12/08 02:52:11;;;;;;;26.20;20.67;;;3.90;99.90;;;;;;5072877;28;20156;-65
2020/12/08 02:54:36;;;;;;;24.07;20.17;;;4.00;99.90;;;;;;5057687;28;20557;-65
2020/12/08 02:57:05;;;;;;;26.17;21.93;;;4.00;99.90;;;;;;5052752;28;20160;-65
2020/12/08 02:59:32;;;;;;;25.30;21.80;;;4.00;99.90;;;;;;5053070;28;20152;-65
2020/12/08 03:01:58;;;;;;;28.63;22.40;;;4.10;99.90;;;;;;5053199;28;20402;-65
2020/12/08 03:04:23;;;;;;;23.83;21.00;;;4.10;99.90;;;;;;5054111;28;20837;-65
2020/12/08 03:06:49;;;;;;;24.27;20.87;;;4.10;99.90;;;;;;5052824;28;20403;-65
2020/12/08 03:09:14;;;;;;;28.47;22.40;;;4.10;99.90;;;;;;5052546;28;20320;-65
2020/12/08 03:11:40;;;;;;;28.27;22.87;;;4.10;99.90;;;;;;5068113;28;20632;-65
2020/12/08 03:14:07;;;;;;;24.33;21.60;;;4.10;99.90;;;;;;5073165;28;20163;-65
2020/12/08 03:16:33;;;;;;;24.97;21.70;;;4.20;99.90;;;;;;5072975;28;20154;-65
2020/12/08 03:18:59;;;;;;;27.97;20.87;;;4.20;99.90;;;;;;5072676;28;20394;-65
2020/12/08 03:21:24;;;;;;;28.23;21.73;;;4.20;99.90;;;;;;5072693;28;20425;-65
2020/12/08 03:23:50;;;;;;;28.93;23.23;;;4.20;99.90;;;;;;5072530;28;20221;-65
2020/12/08 03:26:20;;;;;;;28.50;22.50;;;4.20;99.90;;;;;;5072631;28;20634;-65
2020/12/08 03:28:45;;;;;;;23.90;21.03;;;4.30;99.90;;;;;;5070689;28;20680;-65
2020/12/08 03:31:11;;;;;;;28.00;23.90;;;4.30;99.90;;;;;;5072802;28;20543;-65
2020/12/08 03:33:36;;;;;;;28.70;23.00;;;4.30;99.90;;;;;;5066886;28;20192;-65
2020/12/08 03:36:02;;;;;;;25.30;21.00;;;4.30;99.90;;;;;;5052481;28;20152;-65
2020/12/08 03:38:27;;;;;;;24.80;20.87;;;4.30;99.90;;;;;;5052497;28;20569;-65
2020/12/08 03:40:53;;;;;;;25.50;22.60;;;4.30;99.90;;;;;;5053160;28;20160;-65
2020/12/08 03:43:18;;;;;;;27.27;23.17;;;4.40;99.90;;;;;;5069256;28;20284;-65
2020/12/08 03:45:44;;;;;;;25.07;22.07;;;4.40;99.90;;;;;;5056276;28;20218;-65
2020/12/08 03:48:09;;;;;;;26.73;22.93;;;4.40;99.90;;;;;;5052357;28;20172;-65
2020/12/08 03:50:35;;;;;;;25.53;22.00;;;4.40;99.90;;;;;;5052272;28;20553;-65
2020/12/08 03:53:00;;;;;;;26.40;22.83;;;4.40;99.90;;;;;;5052269;28;20145;-65
2020/12/08 03:55:26;;;;;;;25.80;22.87;;;4.40;99.90;;;;;;5052373;28;20160;-65
2020/12/08 03:57:51;;;;;;;26.10;22.10;;;4.40;99.90;;;;;;5052411;28;20157;-65
2020/12/08 04:00:17;;;;;;;26.90;24.00;;;4.40;99.90;;;;;;5052678;28;20161;-65
2020/12/08 04:02:42;;;;;;;27.47;22.37;;;4.50;99.90;;;;;;5052678;28;20168;-65
2020/12/08 04:05:08;;;;;;;27.17;22.70;;;4.50;99.90;;;;;;5069960;28;20171;-65
2020/12/08 04:07:33;;;;;;;27.10;22.23;;;4.50;99.90;;;;;;5072124;28;20168;-65
2020/12/08 04:09:59;;;;;;;28.37;23.10;;;4.60;99.90;;;;;;5072062;28;20199;-65
2020/12/08 04:12:24;;;;;;;28.10;23.60;;;4.60;99.90;;;;;;5072312;28;20163;-65
2020/12/08 04:14:50;;;;;;;28.47;22.40;;;4.60;99.90;;;;;;5072079;28;20157;-65
2020/12/08 04:17:18;;;;;;;24.33;21.40;;;4.60;99.90;;;;;;5073883;28;20163;-65
2020/12/08 04:19:43;;;;;;;25.80;22.97;;;4.70;99.90;;;;;;5059683;28;20538;-65
2020/12/08 04:22:09;;;;;;;25.70;22.33;;;4.60;99.90;;;;;;5055776;28;20401;-65
2020/12/08 04:24:34;;;;;;;30.87;23.77;;;4.70;99.90;;;;;;5055658;28;20523;-65
2020/12/08 04:27:00;;;;;;;27.30;22.30;;;4.70;99.90;;;;;;5055739;28;20206;-65
2020/12/08 04:29:25;;;;;;;27.10;22.37;;;4.70;99.90;;;;;;5055458;28;20673;-65
2020/12/08 04:31:51;;;;;;;25.60;21.63;;;4.70;99.90;;;;;;5055508;28;20153;-65
2020/12/08 04:34:17;;;;;;;23.50;20.37;;;4.70;99.90;;;;;;5055684;28;20181;-65
2020/12/08 04:36:42;;;;;;;26.87;22.50;;;4.80;99.90;;;;;;5071005;28;20408;-65
2020/12/08 04:39:08;;;;;;;25.37;22.57;;;4.80;99.90;;;;;;5075450;28;20624;-65
2020/12/08 04:41:33;;;;;;;23.43;20.50;;;4.80;99.90;;;;;;5070076;28;20175;-65
2020/12/08 04:44:01;;;;;;;22.03;19.17;;;4.80;99.90;;;;;;5055470;28;20177;-65
2020/12/08 04:46:26;;;;;;;19.90;17.80;;;4.90;99.90;;;;;;5054392;28;20627;-65
2020/12/08 04:48:52;;;;;;;23.23;19.53;;;4.80;99.90;;;;;;5055177;28;20395;-65
2020/12/08 04:51:18;;;;;;;20.77;18.57;;;4.90;99.90;;;;;;5055368;28;20220;-65
2020/12/08 04:53:46;;;;;;;22.33;18.57;;;4.90;99.90;;;;;;5071441;28;20178;-65
2020/12/08 04:56:11;;;;;;;18.80;16.80;;;4.90;99.90;;;;;;5075359;28;20521;-65
2020/12/08 04:58:37;;;;;;;20.50;18.50;;;4.80;99.90;;;;;;5074991;28;20392;-65
2020/12/08 05:01:03;;;;;;;20.70;18.50;;;4.90;99.90;;;;;;5075231;28;20165;-65
2020/12/08 05:03:31;;;;;;;18.63;16.67;;;4.90;99.90;;;;;;5074993;28;20159;-65
2020/12/08 05:05:57;;;;;;;17.20;15.40;;;4.90;99.90;;;;;;5075415;28;20395;-65
2020/12/08 05:08:22;;;;;;;17.90;16.07;;;4.80;99.90;;;;;;5074873;28;20478;-65
2020/12/08 05:10:48;;;;;;;18.90;16.20;;;4.80;99.90;;;;;;5073954;28;20195;-65
2020/12/08 05:13:19;;;;;;;17.73;15.90;;;4.70;99.90;;;;;;5056616;28;20179;-65
2020/12/08 05:16:00;;;;;;;17.93;16.03;;;4.70;99.90;;;;;;5053521;28;20397;-65
2020/12/08 05:18:25;;;;;;;21.80;17.23;;;4.70;99.90;;;;;;5055001;28;20388;-65
2020/12/08 05:20:51;;;;;;;18.23;16.20;;;4.70;99.90;;;;;;5053721;28;20494;-65
2020/12/08 05:23:17;;;;;;;16.77;15.07;;;4.70;99.90;;;;;;5054716;28;20161;-65
2020/12/08 05:25:45;;;;;;;18.93;17.03;;;4.70;99.90;;;;;;5069372;28;20173;-65
2020/12/08 05:28:17;;;;;;;19.17;17.13;;;4.70;99.90;;;;;;5055237;28;20173;-64
2020/12/08 05:30:44;;;;;;;17.67;15.77;;;4.70;99.90;;;;;;5054666;28;21016;-65
2020/12/08 05:33:14;;;;;;;18.73;16.73;;;4.70;99.90;;;;;;5053598;28;20872;-65
2020/12/08 05:35:43;;;;;;;18.03;15.87;;;4.70;99.90;;;;;;5053443;28;20395;-65
2020/12/08 05:38:13;;;;;;;19.20;16.70;;;4.70;99.90;;;;;;5055367;28;20398;-65
2020/12/08 05:40:42;;;;;;;19.53;17.43;;;4.70;99.90;;;;;;5054510;28;20406;-64
2020/12/08 05:43:08;;;;;;;18.27;16.27;;;4.70;99.90;;;;;;5068438;28;20425;-65
2020/12/08 05:45:33;;;;;;;18.20;16.17;;;4.70;99.90;;;;;;5065953;28;20904;-65
2020/12/08 05:47:59;;;;;;;17.33;15.53;;;4.60;99.90;;;;;;5077325;28;20186;-65
2020/12/08 05:50:26;;;;;;;18.10;16.17;;;4.60;99.90;;;;;;5074079;28;20256;-65
2020/12/08 05:52:56;;;;;;;18.87;16.90;;;4.50;99.90;;;;;;5072955;28;20179;-64
2020/12/08 05:55:23;;;;;;;17.67;15.83;;;4.50;99.90;;;;;;5074329;28;20452;-65
2020/12/08 05:57:50;;;;;;;18.70;16.73;;;4.40;99.90;;;;;;5072757;28;20944;-65
2020/12/08 06:00:32;;;;;;;19.90;17.30;;;4.40;99.90;;;;;;5073017;28;20445;-65
2020/12/08 06:03:17;;;;;;;19.40;16.57;;;4.30;99.90;;;;;;5071575;28;20421;-65
2020/12/08 06:05:46;;;;;;;19.53;17.53;;;4.30;99.90;;;;;;5073209;28;20420;-65
2020/12/08 06:10:54;;;;;;;20.40;18.27;;;4.30;99.90;;;;;;5130657;27;20511;-65
2020/12/08 06:13:36;;;;;;;19.40;17.40;;;4.30;99.90;;;;;;5127440;28;20379;-65
2020/12/08 06:16:15;;;;;;;20.53;17.50;;;4.30;99.90;;;;;;5096190;28;20417;-65
2020/12/08 06:18:41;;;;;;;20.37;17.43;;;4.40;99.90;;;;;;5120411;28;20396;-65
2020/12/08 06:21:25;;;;;;;20.37;18.23;;;4.40;99.90;;;;;;5106598;28;20424;-65
2020/12/08 06:23:54;;;;;;;19.87;17.77;;;4.40;99.90;;;;;;5105363;28;20453;-65
2020/12/08 06:26:26;;;;;;;20.80;18.03;;;4.40;99.90;;;;;;5103613;28;20946;-65
2020/12/08 06:28:52;;;;;;;19.53;17.43;;;4.40;99.90;;;;;;5102845;28;20470;-65
2020/12/08 06:31:18;;;;;;;18.90;17.00;;;4.40;99.90;;;;;;5105852;28;20456;-65
2020/12/08 06:36:24;;;;;;;19.43;17.33;;;4.40;99.90;;;;;;5090399;27;20523;-65
2020/12/08 06:38:58;;;;;;;18.40;16.37;;;4.40;99.90;;;;;;5069258;28;20504;-65
2020/12/08 06:41:31;;;;;;;19.63;16.77;;;4.30;99.90;;;;;;5069870;28;20495;-65
2020/12/08 06:43:58;;;;;;;21.83;19.23;;;4.40;99.90;;;;;;5070047;28;20490;-65
2020/12/08 06:46:24;;;;;;;19.83;17.20;;;4.40;99.90;;;;;;5067703;28;20953;-65
2020/12/08 06:49:07;;;;;;;19.60;16.47;;;4.40;99.90;;;;;;5069641;28;20419;-65
2020/12/08 06:51:34;;;;;;;20.00;17.77;;;4.40;99.90;;;;;;5069657;28;20413;-65
2020/12/08 06:54:14;;;;;;;19.00;16.73;;;4.40;99.90;;;;;;5070023;28;20384;-65
2020/12/08 06:56:40;;;;;;;18.73;16.40;;;4.40;99.90;;;;;;5070760;28;20959;-65
2020/12/08 06:59:05;;;;;;;17.63;15.73;;;4.50;99.90;;;;;;5077884;28;20506;-65
2020/12/08 07:01:31;;;;;;;18.40;16.13;;;4.50;99.90;;;;;;5069163;28;20188;-65
2020/12/08 07:03:57;;;;;;;17.23;15.43;;;4.50;99.90;;;;;;5067695;28;20168;-65
2020/12/08 07:06:25;;;;;;;17.77;15.90;;;4.50;99.90;;;;;;5067799;28;20178;-65
2020/12/08 07:08:51;;;;;;;19.30;16.63;;;4.60;99.90;;;;;;5071972;28;20413;-65
2020/12/08 07:11:19;;;;;;;19.20;16.50;;;4.60;99.90;;;;;;5071329;28;20496;-65
2020/12/08 07:14:01;;;;;;;18.43;16.47;;;4.60;99.90;;;;;;5079644;28;20425;-65
2020/12/08 07:16:28;;;;;;;20.07;16.30;;;4.60;99.90;;;;;;5070993;28;20409;-65
2020/12/08 07:18:55;;;;;;;15.57;14.03;;;4.70;99.90;;;;;;5072395;28;20415;-65
2020/12/08 07:21:21;;;;;;;18.10;16.07;;;4.70;99.90;;;;;;5066496;28;20524;-65
2020/12/08 07:23:50;;;;;;;17.80;15.97;;;4.70;99.90;;;;;;5066411;28;20933;-65
2020/12/08 07:26:26;;;;;;;16.80;15.10;;;4.80;99.90;;;;;;5067815;28;20409;-65
2020/12/08 07:28:54;;;;;;;19.17;16.17;;;4.80;99.90;;;;;;5067118;28;20508;-65
2020/12/08 07:31:21;;;;;;;18.40;16.40;;;4.80;99.90;;;;;;5068828;28;20476;-65
2020/12/08 07:33:47;;;;;;;15.60;14.00;;;4.80;99.90;;;;;;5063615;28;20418;-65
2020/12/08 07:36:33;;;;;;;17.13;15.33;;;4.80;99.90;;;;;;5064648;28;20530;-65
2020/12/08 07:39:02;;;;;;;18.93;16.23;;;4.90;99.90;;;;;;5064031;28;20424;-65
2020/12/08 07:41:29;;;;;;;15.93;14.37;;;4.90;99.90;;;;;;5056419;28;20416;-65
2020/12/08 07:43:56;;;;;;;17.00;14.27;;;4.90;99.90;;;;;;5065212;28;20420;-65
2020/12/08 07:49:01;;;;;;;17.40;14.60;;;4.90;99.90;;;;;;5109754;27;20509;-65
2020/12/08 07:51:28;;;;;;;15.73;14.07;;;4.90;99.90;;;;;;5085241;28;20426;-65
2020/12/08 07:53:53;;;;;;;18.10;13.73;;;4.90;99.90;;;;;;5084260;28;20464;-65
2020/12/08 07:56:28;;;;;;;16.10;14.33;;;4.90;99.90;;;;;;5085964;28;20512;-65
2020/12/08 07:58:54;;;;;;;16.40;14.60;;;4.90;99.90;;;;;;5082806;28;20871;-65
2020/12/08 08:01:20;;;;;;;16.00;14.03;;;4.90;99.90;;;;;;5085678;28;20436;-65
2020/12/08 08:03:45;;;;;;;15.67;14.07;;;4.90;99.90;;;;;;5090966;28;20426;-65
2020/12/08 08:06:13;;;;;;;15.40;13.80;;;4.90;99.90;;;;;;5087910;28;20832;-65
2020/12/08 08:08:38;;;;;;;16.50;14.90;;;5.00;99.90;;;;;;5086726;28;20195;-65
2020/12/08 08:11:04;;;;;;;18.50;12.90;;;5.00;99.90;;;;;;5086467;28;20409;-65
2020/12/08 08:13:29;;;;;;;19.20;14.83;;;5.00;99.90;;;;;;5085614;28;20268;-65
2020/12/08 08:15:55;;;;;;;18.97;15.63;;;5.10;99.90;;;;;;5089477;28;20256;-65
2020/12/08 08:18:21;;;;;;;16.13;14.50;;;5.10;99.90;;;;;;5090133;28;20171;-65
2020/12/08 08:20:46;;;;;;;16.17;14.47;;;5.20;99.90;;;;;;5076185;28;20806;-65
2020/12/08 08:23:12;;;;;;;15.87;14.20;;;5.20;99.90;;;;;;5069613;28;20485;-65
2020/12/08 08:25:37;;;;;;;19.90;14.13;;;5.20;99.90;;;;;;5067027;28;20533;-65
2020/12/08 08:28:03;;;;;;;15.67;14.07;;;5.30;99.90;;;;;;5067886;28;20208;-65
2020/12/08 08:30:28;;;;;;;17.23;15.43;;;5.30;99.90;;;;;;5072719;28;20666;-65
2020/12/08 08:32:54;;;;;;;15.73;14.23;;;5.30;99.90;;;;;;5068284;28;20160;-65
2020/12/08 08:35:20;;;;;;;14.73;13.10;;;5.30;99.90;;;;;;5068055;28;20317;-65
2020/12/08 08:37:46;;;;;;;16.23;13.83;;;5.30;99.90;;;;;;5068736;28;20399;-65
2020/12/08 08:40:12;;;;;;;14.90;13.30;;;5.30;99.90;;;;;;5066596;28;20432;-65
2020/12/08 08:42:37;;;;;;;15.33;13.63;;;5.40;99.90;;;;;;5067185;28;20184;-65
2020/12/08 08:45:03;;;;;;;15.23;13.73;;;5.40;99.90;;;;;;5067887;28;20200;-65
2020/12/08 08:47:29;;;;;;;16.20;14.50;;;5.40;99.90;;;;;;5066691;28;20689;-65
2020/12/08 08:49:54;;;;;;;16.53;14.27;;;5.40;99.90;;;;;;5067858;28;20213;-65
2020/12/08 08:52:20;;;;;;;15.23;13.63;;;5.40;99.90;;;;;;5071550;28;20181;-65
2020/12/08 08:54:45;;;;;;;14.90;13.33;;;5.50;99.90;;;;;;5079937;28;20166;-65
2020/12/08 08:57:11;;;;;;;15.73;14.10;;;5.50;99.90;;;;;;5068130;28;20562;-65
2020/12/08 08:59:36;;;;;;;15.60;14.00;;;5.60;99.90;;;;;;5057234;28;20566;-65
2020/12/08 09:02:02;;;;;;;15.73;14.03;;;5.60;99.90;;;;;;5052471;28;20174;-65
2020/12/08 09:04:28;;;;;;;16.73;14.50;;;5.60;99.90;;;;;;5054323;28;20638;-65
2020/12/08 09:06:53;;;;;;;17.23;15.13;;;5.70;99.90;;;;;;5054231;28;20205;-65
2020/12/08 09:09:19;;;;;;;15.47;13.97;;;5.70;99.90;;;;;;5053949;28;20181;-66
2020/12/08 09:11:44;;;;;;;17.20;14.27;;;5.70;99.90;;;;;;5051543;28;20616;-65
2020/12/08 09:14:10;;;;;;;15.27;12.80;;;5.70;99.90;;;;;;5056720;28;20174;-65
2020/12/08 09:16:38;;;;;;;17.57;15.67;;;5.70;99.90;;;;;;5052901;28;20332;-65
2020/12/08 09:19:03;;;;;;;15.33;13.73;;;5.70;99.90;;;;;;5053360;28;20185;-65
2020/12/08 09:21:29;;;;;;;15.10;13.50;;;5.70;99.90;;;;;;5053528;28;20444;-65
2020/12/08 09:23:54;;;;;;;14.90;13.43;;;5.70;99.90;;;;;;5053732;28;20568;-65
2020/12/08 09:26:20;;;;;;;13.90;12.50;;;5.80;99.90;;;;;;5054448;28;20154;-65
2020/12/08 09:28:46;;;;;;;13.50;12.10;;;5.80;99.90;;;;;;5053737;28;20664;-65
2020/12/08 09:31:11;;;;;;;14.17;12.77;;;5.80;99.90;;;;;;5052753;28;20273;-65
2020/12/08 09:33:38;;;;;;;13.67;12.30;;;5.80;99.90;;;;;;5052711;28;20174;-65
2020/12/08 09:36:03;;;;;;;13.20;11.87;;;5.80;99.90;;;;;;5054193;28;20529;-66
2020/12/08 09:38:29;;;;;;;14.80;12.90;;;5.80;99.90;;;;;;5052897;28;20513;-65
2020/12/08 09:40:54;;;;;;;14.90;13.40;;;5.70;99.90;;;;;;5053034;28;20627;-65
2020/12/08 09:43:20;;;;;;;14.83;13.23;;;5.70;99.90;;;;;;5053045;28;20196;-65
2020/12/08 09:45:46;;;;;;;13.83;12.50;;;5.70;99.90;;;;;;5052850;28;20178;-65
2020/12/08 09:48:11;;;;;;;14.07;12.57;;;5.80;99.90;;;;;;5056359;28;20288;-65
2020/12/08 09:50:38;;;;;;;15.97;14.30;;;5.80;99.90;;;;;;5057503;28;20270;-65
2020/12/08 09:53:03;;;;;;;12.60;11.40;;;5.80;99.90;;;;;;5054134;28;20160;-66
2020/12/08 09:55:29;;;;;;;19.90;13.33;;;5.90;99.90;;;;;;5052655;28;20402;-65
2020/12/08 09:57:54;;;;;;;13.30;11.60;;;6.00;99.90;;;;;;5051021;28;20195;-65
2020/12/08 10:00:20;;;;;;;16.00;12.53;;;6.00;99.90;;;;;;5046480;28;20566;-65
2020/12/08 10:02:46;;;;;;;13.97;11.37;;;6.00;99.90;;;;;;5050668;28;20662;-65
2020/12/08 10:05:12;;;;;;;11.60;10.50;;;6.00;99.90;;;;;;5053057;28;20211;-65
2020/12/08 10:07:37;;;;;;;14.17;11.60;;;6.00;99.90;;;;;;5052458;28;20200;-65
2020/12/08 10:10:03;;;;;;;13.80;10.97;;;6.10;99.90;;;;;;5050194;28;20430;-65
2020/12/08 10:12:29;;;;;;;14.40;12.37;;;6.10;99.90;;;;;;5053293;28;20242;-65
2020/12/08 10:14:54;;;;;;;15.03;12.90;;;6.10;99.90;;;;;;5053382;28;20498;-65
2020/12/08 10:17:20;;;;;;;13.13;11.80;;;6.20;99.90;;;;;;5053175;28;20191;-65
2020/12/08 10:19:46;;;;;;;14.33;12.27;;;6.20;99.90;;;;;;5059090;28;20693;-65
2020/12/08 10:22:12;;;;;;;14.20;11.03;;;6.20;99.90;;;;;;5054196;28;20180;-65
2020/12/08 10:24:39;;;;;;;12.90;11.60;;;6.30;99.90;;;;;;5053550;28;20478;-65
2020/12/08 10:27:05;;;;;;;14.17;12.87;;;6.30;99.90;;;;;;5050796;28;20811;-65
2020/12/08 10:29:32;;;;;;;12.80;11.60;;;6.40;99.90;;;;;;5051813;28;20405;-65
2020/12/08 10:31:57;;;;;;;13.10;11.80;;;6.40;99.90;;;;;;5056390;28;20780;-65
2020/12/08 10:34:23;;;;;;;13.63;12.33;;;6.50;99.90;;;;;;5056798;28;20418;-65
2020/12/08 10:36:49;;;;;;;11.93;10.73;;;6.50;99.90;;;;;;5051356;28;20256;-65
2020/12/08 10:39:15;;;;;;;12.90;11.60;;;6.60;99.90;;;;;;5051234;28;20419;-65
2020/12/08 10:41:41;;;;;;;14.57;13.23;;;6.60;99.90;;;;;;5052528;28;20212;-66
2020/12/08 10:44:07;;;;;;;12.43;11.13;;;6.60;99.90;;;;;;5048295;28;20186;-65
2020/12/08 10:46:34;;;;;;;12.10;10.93;;;6.70;99.90;;;;;;5046914;28;20807;-65
2020/12/08 10:49:00;;;;;;;12.93;11.57;;;6.80;99.90;;;;;;5084896;28;20200;-66
2020/12/08 10:51:25;;;;;;;12.67;11.57;;;6.80;99.90;;;;;;5053046;28;20463;-66
2020/12/08 10:53:51;;;;;;;12.30;11.10;;;6.80;99.90;;;;;;5050717;28;20175;-66
2020/12/08 10:56:22;;;;;;;14.33;12.87;;;6.80;99.90;;;;;;5048497;28;20179;-66
2020/12/08 10:58:49;;;;;;;12.30;11.10;;;6.80;99.90;;;;;;5054306;28;20175;-65
2020/12/08 11:01:30;;;;;;;14.10;12.70;;;6.80;99.90;;;;;;5050582;28;21222;-66
2020/12/08 11:03:56;;;;;;;11.60;10.60;;;6.80;99.90;;;;;;5051562;28;20428;-66
2020/12/08 11:06:23;;;;;;;12.17;11.07;;;6.80;99.90;;;;;;5049595;28;20428;-66
2020/12/08 11:08:50;;;;;;;13.43;12.10;;;6.90;99.90;;;;;;5048835;28;20213;-66
2020/12/08 11:11:25;;;;;;;13.60;12.30;;;6.90;99.90;;;;;;5051772;28;20428;-65
2020/12/08 11:13:51;;;;;;;14.17;12.77;;;6.90;99.90;;;;;;5055124;28;20765;-66
2020/12/08 11:16:18;;;;;;;14.50;11.90;;;6.80;99.90;;;;;;5050649;28;20634;-66
2020/12/08 11:18:43;;;;;;;12.27;10.90;;;6.70;99.90;;;;;;5048917;28;20451;-65
2020/12/08 11:21:09;;;;;;;12.43;11.13;;;6.70;99.90;;;;;;5049446;28;20448;-65
2020/12/08 11:23:35;;;;;;;11.97;10.87;;;6.40;99.90;;;;;;5051791;28;20705;-65
2020/12/08 11:26:00;;;;;;;12.73;11.43;;;6.40;99.90;;;;;;5052149;28;20167;-65
2020/12/08 11:28:26;;;;;;;12.47;11.17;;;6.20;99.90;;;;;;5050287;28;20200;-66
2020/12/08 11:30:51;;;;;;;12.23;10.97;;;6.10;99.90;;;;;;5052913;28;20614;-66
2020/12/08 11:33:18;;;;;;;14.97;11.33;;;6.00;99.90;;;;;;5052800;28;20181;-66
2020/12/08 11:35:43;;;;;;;11.70;10.60;;;6.00;99.90;;;;;;5062735;28;20197;-65
2020/12/08 11:38:09;;;;;;;12.97;11.60;;;6.00;99.90;;;;;;5054717;28;20455;-65
2020/12/08 11:40:34;;;;;;;12.77;11.47;;;6.00;99.90;;;;;;5055547;28;20659;-66
2020/12/08 11:43:00;;;;;;;15.20;11.40;;;6.00;99.90;;;;;;5049898;28;20263;-66
2020/12/08 11:45:26;;;;;;;13.07;11.70;;;6.10;99.90;;;;;;5051421;28;20184;-66
2020/12/08 11:47:51;;;;;;;13.37;12.10;;;6.10;99.90;;;;;;5049407;28;20280;-66
2020/12/08 11:50:17;;;;;;;12.73;11.43;;;6.10;99.90;;;;;;5048989;28;20571;-65
2020/12/08 11:52:42;;;;;;;13.20;11.90;;;6.20;99.90;;;;;;5051305;28;20193;-65
2020/12/08 11:55:08;;;;;;;12.93;11.60;;;6.20;99.90;;;;;;5055592;28;20713;-65
2020/12/08 11:57:34;;;;;;;13.63;12.33;;;6.30;99.90;;;;;;5054669;28;20641;-66
2020/12/08 12:00:00;;;;;;;13.00;11.70;;;6.30;99.90;;;;;;5055997;28;20185;-66
2020/12/08 12:02:26;;;;;;;13.83;12.53;;;6.30;99.90;;;;;;5051214;28;20426;-66
2020/12/08 12:04:51;;;;;;;15.80;12.30;;;6.40;99.90;;;;;;5049132;28;20209;-66
2020/12/08 12:07:17;;;;;;;12.70;11.40;;;6.30;99.90;;;;;;5049908;28;20577;-66
2020/12/08 12:09:42;;;;;;;14.83;11.73;;;6.30;99.90;;;;;;5048435;28;20758;-66
2020/12/08 12:12:08;;;;;;;14.20;12.70;;;6.30;99.90;;;;;;5048042;28;20187;-66
2020/12/08 12:14:34;;;;;;;13.80;12.40;;;6.40;99.90;;;;;;5048128;28;20223;-66
2020/12/08 12:16:59;;;;;;;15.77;13.57;;;6.50;99.90;;;;;;5044449;28;20187;-65
2020/12/08 12:19:25;;;;;;;13.43;11.40;;;6.60;99.90;;;;;;5050216;28;20696;-65
2020/12/08 12:21:50;;;;;;;14.63;11.93;;;6.70;99.90;;;;;;5049927;28;20176;-66
2020/12/08 12:24:16;;;;;;;13.97;12.57;;;6.80;99.90;;;;;;5051490;28;20650;-65
2020/12/08 12:26:42;;;;;;;11.87;10.67;;;6.80;99.90;;;;;;5044883;28;20185;-66
2020/12/08 12:29:07;;;;;;;12.13;10.80;;;6.80;99.90;;;;;;5046889;28;20182;-66
2020/12/08 12:31:33;;;;;;;12.70;11.40;;;6.80;99.90;;;;;;5042978;28;20182;-66
2020/12/08 12:33:59;;;;;;;10.33;9.33;;;6.70;99.90;;;;;;5045965;28;20176;-65
2020/12/08 12:36:24;;;;;;;10.63;9.63;;;6.70;99.90;;;;;;5051605;28;20239;-65
2020/12/08 12:38:50;;;;;;;11.17;10.03;;;6.70;99.90;;;;;;5049627;28;20183;-66
2020/12/08 12:41:23;;;;;;;11.50;10.33;;;6.80;99.90;;;;;;5051666;28;20176;-66